Akuse, Ghana

8:50 AM GMT on August 27, 2014 (GMT +0000)
Kotoka International | Change Station
CLOSE
Current Station
Airport
Location: Accra,
Elevation: 226 ft
Nearby Weather Stations

Elev 226 ft 5.61 °N, 0.17 °W | Updated 50 minutes ago

Mostly Cloudy
Mostly Cloudy
73 °F
Feels Like 73 °F
N
6
Wind Variable Wind from SSE

Today
High -- | Low -- °F
--% Chance of Precip.
Yesterday
High -- | Low -- °F
Precip. -- in
5:53 AM 6:08 PM
Waxing Crescent, 3% visible
Pressure 30.01 in
Visibility 6.2 miles
Clouds Mostly Cloudy 500 ft
Mostly Cloudy 3100 ft
Dew Point 73 °F
Humidity 100%
Rainfall 0.00 in
Snow Depth Not available.
UV 2 out of 12
Pollen Not available.
Air Quality Not available.
Flu Activity Not available.
METAR DGAA 270800Z 16005KT 130V190 9999 BKN005 BKN031 23/23 Q1016 NOSIG

More Conditions Fewer Conditions

Pressure 30.01 in
Visibility 6.2 miles
Clouds Mostly Cloudy 500 ft
Mostly Cloudy 3100 ft
Dew Point 73 °F
Humidity 100%
Rainfall 0.00 in
Snow Depth Not available.
UV 2 out of 12
Pollen Not available.
Air Quality Not available.
Flu Activity Not available.
METAR DGAA 270800Z 16005KT 130V190 9999 BKN005 BKN031 23/23 Q1016 NOSIG

More Conditions Fewer Conditions

10-Day Weather Forecast

Almanac

Astronomy

Aug. 27, 2014 Rise Set
Actual Time 5:53 AM GMT 6:08 PM GMT
Civil Twilight 5:32 AM GMT 6:29 PM GMT
Nautical Twilight 5:07 AM GMT 6:54 PM GMT
Astronomical Twilight 4:42 AM GMT 7:19 PM GMT
Moon 7:06 AM GMT 7:27 PM GMT
Length of Visible Light 12h 57m
Length of Day
12h 15m
Tomorrow will be 0m 20s shorter.
Waxing Crescent, 3% of the Moon is Illuminated
Today
Waxing Crescent
Sep 2
First Quarter
Sep 8
Full
Sep 15
Last Quarter
Sep 24
New

Yesterday's Extremes

Country Highs Country Lows

Community

WunderPhotos

Upload Photos

1,747,657 photos uploaded!

Nearby

Snow Depth

Not available.

Earthquake Activity

City Distance Mag. Time & Date
No recent earthquake activity has been reported nearby.
Minimum magnitude displayed is 2.5.

Coastal Water Temperatures

Place Temperature
No Stations Reporting

Nearby Weather Stations